Map

Track Data

SID SEASON NUMBER BASIN SUBBASIN NAME ISO_TIME NATURE LAT LON WMO_WIND WMO_PRES WMO_AGENCY TRACK_TYPE DIST2LAND LANDFALL IFLAG USA_AGENCY USA_ATCF_ID USA_LAT USA_LON USA_RECORD USA_STATUS USA_WIND USA_PRES USA_SSHS USA_R34_NE USA_R34_SE USA_R34_SW USA_R34_NW USA_R50_NE USA_R50_SE USA_R50_SW USA_R50_NW USA_R64_NE USA_R64_SE USA_R64_SW USA_R64_NW USA_POCI USA_ROCI USA_RMW USA_EYE TOKYO_LAT TOKYO_LON TOKYO_GRADE TOKYO_WIND TOKYO_PRES TOKYO_R50_DIR TOKYO_R50_LONG TOKYO_R50_SHORT TOKYO_R30_DIR TOKYO_R30_LONG TOKYO_R30_SHORT TOKYO_LAND CMA_LAT CMA_LON CMA_CAT CMA_WIND CMA_PRES HKO_LAT HKO_LON HKO_CAT HKO_WIND HKO_PRES NEWDELHI_LAT NEWDELHI_LON NEWDELHI_GRADE NEWDELHI_WIND NEWDELHI_PRES NEWDELHI_CI NEWDELHI_DP NEWDELHI_POCI REUNION_LAT REUNION_LON REUNION_TYPE REUNION_WIND REUNION_PRES REUNION_TNUM REUNION_CI REUNION_RMW REUNION_R34_NE REUNION_R34_SE REUNION_R34_SW REUNION_R34_NW REUNION_R50_NE REUNION_R50_SE REUNION_R50_SW REUNION_R50_NW REUNION_R64_NE REUNION_R64_SE REUNION_R64_SW REUNION_R64_NW BOM_LAT BOM_LON BOM_TYPE BOM_WIND BOM_PRES BOM_TNUM BOM_CI BOM_RMW BOM_R34_NE BOM_R34_SE BOM_R34_SW BOM_R34_NW BOM_R50_NE BOM_R50_SE BOM_R50_SW BOM_R50_NW BOM_R64_NE BOM_R64_SE BOM_R64_SW BOM_R64_NW BOM_ROCI BOM_POCI BOM_EYE BOM_POS_METHOD BOM_PRES_METHOD NADI_LAT NADI_LON NADI_CAT NADI_WIND NADI_PRES WELLINGTON_LAT WELLINGTON_LON WELLINGTON_WIND WELLINGTON_PRES DS824_LAT DS824_LON DS824_STAGE DS824_WIND DS824_PRES TD9636_LAT TD9636_LON TD9636_STAGE TD9636_WIND TD9636_PRES TD9635_LAT TD9635_LON TD9635_WIND TD9635_PRES TD9635_ROCI NEUMANN_LAT NEUMANN_LON NEUMANN_CLASS NEUMANN_WIND NEUMANN_PRES MLC_LAT MLC_LON MLC_CLASS MLC_WIND MLC_PRES USA_GUST BOM_GUST BOM_GUST_PER REUNION_GUST REUNION_GUST_PER USA_SEAHGT USA_SEARAD_NE USA_SEARAD_SE USA_SEARAD_SW USA_SEARAD_NW STORM_SPEED STORM_DIR
2002234N13253 2002 52 EP MM FAUSTO 2002-08-21 12:00:00 TS 12.8000 -106.900 25 1006 hurdat_epa main 715 715 O_____________ hurdat_epa EP082002 12.8000 -106.900 TD 25 1006 -1 1010 180 40 8 271
2002234N13253 2002 52 EP MM FAUSTO 2002-08-21 15:00:00 TS 12.8051 -107.295 main 738 738 P_____________ EP082002 12.8051 -107.295 TD 27 1005 -1 1010 210 35 8 270
2002234N13253 2002 52 EP MM FAUSTO 2002-08-21 18:00:00 TS 12.8000 -107.700 30 1005 hurdat_epa main 762 762 O_____________ hurdat_epa EP082002 12.8000 -107.700 TD 30 1005 -1 1010 240 30 8 269
2002234N13253 2002 52 EP MM FAUSTO 2002-08-21 21:00:00 TS 12.7849 -108.128 main 788 788 P_____________ EP082002 12.7849 -108.128 TD 32 1004 -1 1009 220 30 9 270
2002234N13253 2002 52 EP MM FAUSTO 2002-08-22 00:00:00 TS 12.8000 -108.600 35 1004 hurdat_epa main 823 823 O_____________ hurdat_epa EP082002 12.8000 -108.600 TS 35 1004 0 50 50 30 50 1008 200 30 10 276
2002234N13253 2002 52 EP MM FAUSTO 2002-08-22 03:00:00 TS 12.8849 -109.120 main 841 841 P_____________ EP082002 12.8849 -109.120 TS 40 1002 0 50 50 30 50 1008 200 30 11 281
2002234N13253 2002 52 EP MM FAUSTO 2002-08-22 06:00:00 TS 13.0000 -109.700 45 1000 hurdat_epa main 869 869 O_____________ hurdat_epa EP082002 13.0000 -109.700 TS 45 1000 0 50 50 30 50 1008 200 30 12 279
2002234N13253 2002 52 EP MM FAUSTO 2002-08-22 09:00:00 TS 13.0774 -110.335 main 900 900 P_____________ EP082002 13.0774 -110.335 TS 50 997 0 62 55 45 62 1008 220 27 13 279
2002234N13253 2002 52 EP MM FAUSTO 2002-08-22 12:00:00 TS 13.2000 -111.000 55 994 hurdat_epa main 942 942 O_____________ hurdat_epa EP082002 13.2000 -111.000 TS 55 994 0 75 60 60 75 1008 240 25 13 285
2002234N13253 2002 52 EP MM FAUSTO 2002-08-22 15:00:00 TS 13.4273 -111.642 main 972 972 P_____________ EP082002 13.4273 -111.642 TS 60 990 0 82 67 67 82 1009 240 25 14 292
2002234N13253 2002 52 EP MM FAUSTO 2002-08-22 18:00:00 TS 13.7000 -112.300 65 987 hurdat_epa main 1003 1003 O_____________ hurdat_epa EP082002 13.7000 -112.300 HU 65 987 1 90 75 75 90 1010 240 25 14 292
2002234N13253 2002 52 EP MM FAUSTO 2002-08-22 21:00:00 TS 13.9649 -112.992 main 1038 1038 P_____________ EP082002 13.9649 -112.992 HU 67 983 1 105 97 82 105 1010 240 25 15 290
2002234N13253 2002 52 EP MM FAUSTO 2002-08-23 00:00:00 TS 14.2000 -113.700 70 979 hurdat_epa main 1048 1046 O_____________ hurdat_epa EP082002 14.2000 -113.700 HU 70 979 1 120 120 90 120 1010 240 25 14 287
2002234N13253 2002 52 EP MM FAUSTO 2002-08-23 03:00:00 TS 14.3723 -114.400 main 1057 1057 P_____________ EP082002 14.3723 -114.400 HU 75 977 1 135 135 90 120 1010 240 25 14 282
2002234N13253 2002 52 EP MM FAUSTO 2002-08-23 06:00:00 TS 14.5000 -115.100 80 976 hurdat_epa main 1082 1082 O_____________ hurdat_epa EP082002 14.5000 -115.100 HU 80 976 1 150 150 90 120 1010 240 25 14 280
2002234N13253 2002 52 EP MM FAUSTO 2002-08-23 09:00:00 TS 14.5998 -115.800 main 1110 1110 P_____________ EP082002 14.5998 -115.800 HU 85 971 2 150 150 95 120 1010 225 22 14 278
2002234N13253 2002 52 EP MM FAUSTO 2002-08-23 12:00:00 TS 14.7000 -116.500 90 966 hurdat_epa main 1143 1143 O_____________ hurdat_epa EP082002 14.7000 -116.500 HU 90 966 2 150 150 100 120 1011 210 20 14 280
2002234N13253 2002 52 EP MM FAUSTO 2002-08-23 15:00:00 TS 14.8499 -117.207 main 1180 1171 P_____________ EP082002 14.8499 -117.207 HU 95 964 2 150 150 100 120 1010 225 17 14 283
2002234N13253 2002 52 EP MM FAUSTO 2002-08-23 18:00:00 TS 15.0000 -117.900 100 962 hurdat_epa main 1212 1212 O_____________ hurdat_epa EP082002 15.0000 -117.900 HU 100 962 3 150 150 100 120 1009 240 15 13 281
2002234N13253 2002 52 EP MM FAUSTO 2002-08-23 21:00:00 TS 15.1147 -118.558 main 1255 1255 P_____________ EP082002 15.1147 -118.558 HU 105 957 3 150 262 125 120 1009 245 15 13 279
2002234N13253 2002 52 EP MM FAUSTO 2002-08-24 00:00:00 TS 15.2000 -119.200 110 952 hurdat_epa main 1294 1294 O_____________ hurdat_epa EP082002 15.2000 -119.200 HU 110 952 3 150 375 150 120 1009 250 15 13 275
2002234N13253 2002 52 EP MM FAUSTO 2002-08-24 03:00:00 TS 15.2348 -119.850 main 1338 1338 P_____________ EP082002 15.2348 -119.850 HU 115 947 4 150 350 150 120 1009 250 17 13 275
2002234N13253 2002 52 EP MM FAUSTO 2002-08-24 06:00:00 TS 15.3000 -120.500 120 942 hurdat_epa main 1368 1368 O_____________ hurdat_epa EP082002 15.3000 -120.500 HU 120 942 4 150 325 150 120 1009 250 20 13 281
2002234N13253 2002 52 EP MM FAUSTO 2002-08-24 09:00:00 TS 15.4774 -121.165 main 1399 1399 P_____________ EP082002 15.4774 -121.165 HU 122 939 4 150 325 150 120 1009 260 20 13 288
2002234N13253 2002 52 EP MM FAUSTO 2002-08-24 12:00:00 TS 15.7000 -121.800 125 936 hurdat_epa main 1426 1426 O_____________ hurdat_epa EP082002 15.7000 -121.800 HU 125 936 4 150 325 150 120 1010 270 20 12 290
2002234N13253 2002 52 EP MM FAUSTO 2002-08-24 15:00:00 TS 15.8922 -122.365 main 1455 1454 P_____________ EP082002 15.8922 -122.365 HU 125 936 4 150 312 150 120 1009 270 22 11 291
2002234N13253 2002 52 EP MM FAUSTO 2002-08-24 18:00:00 TS 16.1000 -122.900 125 936 hurdat_epa main 1478 1478 O_____________ hurdat_epa EP082002 16.1000 -122.900 HU 125 936 4 150 300 150 120 1009 270 25 11 293
2002234N13253 2002 52 EP MM FAUSTO 2002-08-24 21:00:00 TS 16.3348 -123.443 main 1502 1502 P_____________ EP082002 16.3348 -123.443 HU 122 939 4 150 287 150 120 1009 270 22 12 295
2002234N13253 2002 52 EP MM FAUSTO 2002-08-25 00:00:00 TS 16.6000 -124.000 120 942 hurdat_epa main 1530 1530 O_____________ hurdat_epa EP082002 16.6000 -124.000 HU 120 942 4 150 275 150 120 1009 270 20 12 297
2002234N13253 2002 52 EP MM FAUSTO 2002-08-25 03:00:00 TS 16.8923 -124.585 main 1557 1555 P_____________ EP082002 16.8923 -124.585 HU 115 947 4 150 262 150 120 1008 255 20 13 298
2002234N13253 2002 52 EP MM FAUSTO 2002-08-25 06:00:00 TS 17.2000 -125.200 110 952 hurdat_epa main 1571 1570 O_____________ hurdat_epa EP082002 17.2000 -125.200 HU 110 952 3 150 250 150 120 1008 240 20 13 297
2002234N13253 2002 52 EP MM FAUSTO 2002-08-25 09:00:00 TS 17.4923 -125.835 main 1588 1588 P_____________ EP082002 17.4923 -125.835 HU 102 959 3 150 225 150 120 1008 240 20 14 296
2002234N13253 2002 52 EP MM FAUSTO 2002-08-25 12:00:00 TS 17.8000 -126.500 95 966 hurdat_epa main 1614 1614 O_____________ hurdat_epa EP082002 17.8000 -126.500 HU 95 966 2 150 200 150 120 1008 240 20 14 296
2002234N13253 2002 52 EP MM FAUSTO 2002-08-25 15:00:00 TS 18.1273 -127.193 main 1644 1644 P_____________ EP082002 18.1273 -127.193 HU 92 968 2 162 175 125 135 1008 220 20 15 298
2002234N13253 2002 52 EP MM FAUSTO 2002-08-25 18:00:00 TS 18.5000 -127.900 90 970 hurdat_epa main 1670 1670 O_____________ hurdat_epa EP082002 18.5000 -127.900 HU 90 970 2 175 150 100 150 1008 200 20 16 301
2002234N13253 2002 52 EP MM FAUSTO 2002-08-25 21:00:00 TS 18.9422 -128.600 main 1699 1692 P_____________ EP082002 18.9422 -128.600 HU 87 971 2 175 150 100 150 1008 200 20 16 304
2002234N13253 2002 52 EP MM FAUSTO 2002-08-26 00:00:00 TS 19.4000 -129.300 85 973 hurdat_epa main 1724 1724 O_____________ hurdat_epa EP082002 19.4000 -129.300 HU 85 973 2 175 150 100 150 1008 200 20 16 303
2002234N13253 2002 52 EP MM FAUSTO 2002-08-26 03:00:00 TS 19.8147 -130.000 main 1760 1760 P_____________ EP082002 19.8147 -130.000 HU 80 977 1 175 150 125 162 1008 190 20 15 301
2002234N13253 2002 52 EP MM FAUSTO 2002-08-26 06:00:00 TS 20.2000 -130.700 75 981 hurdat_epa main 1799 1799 O_____________ hurdat_epa EP082002 20.2000 -130.700 HU 75 981 1 175 150 150 175 1008 180 20 15 300
2002234N13253 2002 52 EP MM FAUSTO 2002-08-26 09:00:00 TS 20.5718 -131.370 main 1840 1840 P_____________ EP082002 20.5718 -131.370 HU 67 985 1 175 150 150 175 1008 180 20 15 298
2002234N13253 2002 52 EP MM FAUSTO 2002-08-26 12:00:00 TS 20.9000 -132.100 60 990 hurdat_epa main 1887 1887 O_____________ hurdat_epa EP082002 20.9000 -132.100 TS 60 990 0 175 150 150 175 1008 180 20 16 291
2002234N13253 2002 52 EP MM FAUSTO 2002-08-26 15:00:00 TS 21.1576 -132.978 main 1914 1914 P_____________ EP082002 21.1576 -132.978 TS 55 993 0 162 105 105 200 1008 180 30 18 287
2002234N13253 2002 52 EP MM FAUSTO 2002-08-26 18:00:00 TS 21.4000 -133.900 50 997 hurdat_epa main 1954 1954 O_____________ hurdat_epa EP082002 21.4000 -133.900 TS 50 997 0 150 60 60 225 1008 180 40 18 288
2002234N13253 2002 52 EP MM FAUSTO 2002-08-26 21:00:00 TS 21.6923 -134.780 main 1989 1989 P_____________ EP082002 21.6923 -134.780 TS 47 998 0 137 175 1008 180 35 17 291
2002234N13253 2002 52 EP MM FAUSTO 2002-08-27 00:00:00 TS 22.0000 -135.600 45 1000 hurdat_epa main 2014 1945 O_____________ hurdat_epa EP082002 22.0000 -135.600 TS 45 1000 0 125 125 1008 180 30 16 292
2002234N13253 2002 52 EP MM FAUSTO 2002-08-27 03:00:00 TS 22.2844 -136.323 main 1945 1877 P_____________ EP082002 22.2844 -136.323 TS 42 1001 0 100 100 1008 165 30 14 295
2002234N13253 2002 52 EP MM FAUSTO 2002-08-27 06:00:00 TS 22.6000 -137.000 40 1002 hurdat_epa main 1877 1813 O_____________ hurdat_epa EP082002 22.6000 -137.000 TS 40 1002 0 75 75 1009 150 30 15 299
2002234N13253 2002 52 EP MM FAUSTO 2002-08-27 09:00:00 TS 22.9772 -137.700 main 1813 1750 P_____________ EP082002 22.9772 -137.700 TS 37 1003 0 1009 150 30 15 302
2002234N13253 2002 52 EP MM FAUSTO 2002-08-27 12:00:00 TS 23.4000 -138.400 35 1005 hurdat_epa main 1750 1690 O_____________ hurdat_epa EP082002 23.4000 -138.400 TS 35 1005 0 1009 150 30 15 304
2002234N13253 2002 52 EP MM FAUSTO 2002-08-27 15:00:00 TS 23.8347 -139.100 main 1690 1636 P_____________ EP082002 23.8347 -139.100 TS 35 1005 0 1010 150 30 16 305
2002234N13253 2002 52 EP MM FAUSTO 2002-08-27 18:00:00 TS 24.3000 -139.800 35 1005 hurdat_epa main 1636 1591 O_____________ hurdat_epa EP082002 24.3000 -139.800 TS 35 1005 0 1011 150 30 16 307
2002234N13253 2002 52 EP CP FAUSTO 2002-08-27 21:00:00 TS 24.7912 -140.487 main 1585 1539 P_____________ EP082002 24.7920 -140.486 TS 32 1006 -1 1010 135 35 16 308
2002234N13253 2002 52 EP CP FAUSTO 2002-08-28 00:00:00 TS 25.3000 -141.200 30 1008 hurdat_epa main 1539 1497 O_____________ hurdat_epa EP082002 25.3000 -141.200 TD 30 1008 -1 1010 120 40 17 309
2002234N13253 2002 52 EP CP FAUSTO 2002-08-28 03:00:00 TS 25.8365 -141.940 main 1497 1452 P_____________ EP082002 25.8365 -141.940 TD 30 1009 -1 1011 120 40 18 305
2002234N13253 2002 52 EP CP FAUSTO 2002-08-28 06:00:00 TS 26.3000 -142.800 30 1010 hurdat_epa main 1443 1374 O_____________ hurdat_epa EP082002 26.3000 -142.800 TD 30 1010 -1 1012 120 40 19 294
2002234N13253 2002 52 EP CP FAUSTO 2002-08-28 09:00:00 TS 26.6104 -143.870 main 1365 1294 P_____________ EP082002 26.6104 -143.870 TD 30 1010 -1 20 284
2002234N13253 2002 52 EP CP FAUSTO 2002-08-28 12:00:00 DS 26.8000 -145.000 30 1011 hurdat_epa main 1286 1220 O_____________ hurdat_epa EP082002 26.8000 -145.000 LO 30 1011 -3 19 279
2002234N13253 2002 52 EP CP FAUSTO 2002-08-28 15:00:00 DS 26.9136 -146.001 main 1213 1151 P_____________ EP082002 26.9136 -146.001 LO 30 1011 -3 18 276
2002234N13253 2002 52 EP CP FAUSTO 2002-08-28 18:00:00 DS 27.0000 -147.000 30 1012 hurdat_epa main 1144 1074 O_____________ hurdat_epa EP082002 27.0000 -147.000 LO 30 1012 -3 19 277
2002234N13253 2002 52 EP CP FAUSTO 2002-08-28 21:00:00 DS 27.1497 -148.092 main 1066 1008 P_____________ EP082002 27.1497 -148.092 LO 27 1012 -3 20 279
2002234N13253 2002 52 EP CP FAUSTO 2002-08-29 00:00:00 DS 27.3000 -149.200 25 1012 hurdat_epa main 1001 943 O_____________ hurdat_epa EP082002 27.3000 -149.200 LO 25 1012 -3 19 277
2002234N13253 2002 52 EP CP FAUSTO 2002-08-29 03:00:00 DS 27.3992 -150.266 main 936 892 P_____________ EP082002 27.3992 -150.266 LO 25 1012 -3 19 276
2002234N13253 2002 52 EP CP FAUSTO 2002-08-29 06:00:00 DS 27.5000 -151.300 25 1012 hurdat_epa main 887 847 O_____________ hurdat_epa EP082002 27.5000 -151.300 LO 25 1012 -3 19 278
2002234N13253 2002 52 EP CP FAUSTO 2002-08-29 09:00:00 DS 27.6575 -152.352 main 852 828 P_____________ EP082002 27.6575 -152.352 LO 25 1012 -3 18 280
2002234N13253 2002 52 EP CP FAUSTO 2002-08-29 12:00:00 DS 27.8000 -153.300 25 1013 hurdat_epa main 828 801 O_____________ hurdat_epa EP082002 27.8000 -153.300 LO 25 1013 -3 16 277
2002234N13253 2002 52 EP CP FAUSTO 2002-08-29 15:00:00 DS 27.8570 -154.098 main 801 774 P_____________ EP082002 27.8570 -154.098 LO 25 1013 -3 12 275
2002234N13253 2002 52 EP CP FAUSTO 2002-08-29 18:00:00 DS 27.9000 -154.700 25 1013 hurdat_epa main 774 762 O_____________ hurdat_epa EP082002 27.9000 -154.700 LO 25 1013 -3 9 277
2002234N13253 2002 52 EP CP FAUSTO 2002-08-29 21:00:00 DS 27.9694 -155.103 main 768 761 P_____________ EP082002 27.9694 -155.103 LO 27 1012 -3 6 288
2002234N13253 2002 52 EP CP FAUSTO 2002-08-30 00:00:00 DS 28.1000 -155.400 30 1012 hurdat_epa main 768 765 O_____________ hurdat_epa EP082002 28.1000 -155.400 LO 30 1012 -3 7 301
2002234N13253 2002 52 EP CP FAUSTO 2002-08-30 03:00:00 DS 28.3125 -155.758 main 776 776 P_____________ EP082002 28.3125 -155.758 LO 30 1012 -3 8 309
2002234N13253 2002 52 EP CP FAUSTO 2002-08-30 06:00:00 DS 28.6000 -156.100 30 1012 hurdat_epa main 793 793 O_____________ hurdat_epa EP082002 28.6000 -156.100 LO 30 1012 -3 8 318
2002234N13253 2002 52 EP CP FAUSTO 2002-08-30 09:00:00 DS 28.9349 -156.408 main 813 813 P_____________ EP082002 28.9349 -156.408 LO 30 1012 -3 9 323
2002234N13253 2002 52 EP CP FAUSTO 2002-08-30 12:00:00 DS 29.3000 -156.700 30 1012 hurdat_epa main 845 845 O_____________ hurdat_epa EP082002 29.3000 -156.700 LO 30 1012 -3 9 324
2002234N13253 2002 52 EP CP FAUSTO 2002-08-30 15:00:00 DS 29.6349 -156.993 main 868 868 P_____________ EP082002 29.6349 -156.993 LO 30 1012 -3 9 323
2002234N13253 2002 52 EP CP FAUSTO 2002-08-30 18:00:00 TS 30.0000 -157.300 30 1012 hurdat_epa main 904 904 O_____________ hurdat_epa EP082002 30.0000 -157.300 TD 30 1012 -1 10 326
2002234N13253 2002 52 EP CP FAUSTO 2002-08-30 21:00:00 TS 30.4273 -157.621 main 942 942 P_____________ EP082002 30.4273 -157.621 TD 30 1012 -1 11 326
2002234N13253 2002 52 EP CP FAUSTO 2002-08-31 00:00:00 TS 30.9000 -158.000 30 1012 hurdat_epa main 991 991 O_____________ hurdat_epa EP082002 30.9000 -158.000 TD 30 1012 -1 12 325
2002234N13253 2002 52 EP CP FAUSTO 2002-08-31 03:00:00 TS 31.4295 -158.440 main 1042 1042 P_____________ EP082002 31.4295 -158.440 TD 30 1012 -1 13 320
2002234N13253 2002 52 EP CP FAUSTO 2002-08-31 06:00:00 TS 31.9000 -159.000 30 1012 hurdat_epa main 1094 1094 O_____________ hurdat_epa EP082002 31.9000 -159.000 TD 30 1012 -1 13 305
2002234N13253 2002 52 EP CP FAUSTO 2002-08-31 09:00:00 TS 32.1872 -159.691 main 1127 1127 P_____________ EP082002 32.1872 -159.691 TD 30 1012 -1 14 291
2002234N13253 2002 52 EP CP FAUSTO 2002-08-31 12:00:00 TS 32.4000 -160.500 30 1012 hurdat_epa main 1152 1152 O_____________ hurdat_epa EP082002 32.4000 -160.500 TD 30 1012 -1 15 288
2002234N13253 2002 52 EP CP FAUSTO 2002-08-31 15:00:00 TS 32.6578 -161.400 main 1195 1195 P_____________ EP082002 32.6578 -161.400 TD 30 1011 -1 16 288
2002234N13253 2002 52 EP CP FAUSTO 2002-08-31 18:00:00 TS 32.9000 -162.300 30 1010 hurdat_epa main 1232 1232 O_____________ hurdat_epa EP082002 32.9000 -162.300 TD 30 1010 -1 15 287
2002234N13253 2002 52 EP CP FAUSTO 2002-08-31 21:00:00 TS 33.0995 -163.096 main 1272 1272 P_____________ EP082002 33.0995 -163.096 TD 30 1009 -1 13 288
2002234N13253 2002 52 EP CP FAUSTO 2002-09-01 00:00:00 TS 33.3000 -163.800 30 1009 hurdat_epa main 1313 1313 O_____________ hurdat_epa EP082002 33.3000 -163.800 TD 30 1009 -1 12 292
2002234N13253 2002 52 EP CP FAUSTO 2002-09-01 03:00:00 TS 33.5417 -164.415 main 1353 1353 P_____________ EP082002 33.5417 -164.415 TD 30 1009 -1 11 297
2002234N13253 2002 52 EP CP FAUSTO 2002-09-01 06:00:00 TS 33.8000 -165.000 30 1009 hurdat_epa main 1405 1405 O_____________ hurdat_epa EP082002 33.8000 -165.000 TD 30 1009 -1 12 297
2002234N13253 2002 52 EP CP FAUSTO 2002-09-01 09:00:00 TS 34.0650 -165.657 main 1462 1462 P_____________ EP082002 34.0650 -165.657 TD 30 1009 -1 12 295
2002234N13253 2002 52 EP CP FAUSTO 2002-09-01 12:00:00 TS 34.3000 -166.300 30 1009 hurdat_epa main 1506 1506 O_____________ hurdat_epa EP082002 34.3000 -166.300 TD 30 1009 -1 11 291
2002234N13253 2002 52 EP CP FAUSTO 2002-09-01 15:00:00 TS 34.4496 -166.873 main 1542 1542 P_____________ EP082002 34.4496 -166.873 TD 32 1009 -1 10 288
2002234N13253 2002 52 EP CP FAUSTO 2002-09-01 18:00:00 TS 34.6000 -167.400 35 1009 hurdat_epa main 1584 1584 O_____________ hurdat_epa EP082002 34.6000 -167.400 TS 35 1009 0 1012 120 40 9 294
2002234N13253 2002 52 EP CP FAUSTO 2002-09-01 21:00:00 TS 34.8274 -167.923 main 1626 1626 P_____________ EP082002 34.8274 -167.923 TS 35 1009 0 1012 120 40 10 301
2002234N13253 2002 52 EP CP FAUSTO 2002-09-02 00:00:00 TS 35.1000 -168.400 35 1009 hurdat_epa main 1679 1679 O_____________ hurdat_epa EP082002 35.1000 -168.400 TS 35 1009 0 1012 120 40 9 304
2002234N13253 2002 52 EP CP FAUSTO 2002-09-02 03:00:00 TS 35.3247 -168.816 main 1717 1717 P_____________ EP082002 35.3247 -168.816 TS 35 1009 0 1012 120 40 9 313
2002234N13253 2002 52 EP CP FAUSTO 2002-09-02 06:00:00 TS 35.7000 -169.200 35 1009 hurdat_epa main 1774 1774 O_____________ hurdat_epa EP082002 35.7000 -169.200 TS 35 1009 0 1012 120 40 12 325
2002234N13253 2002 52 EP CP FAUSTO 2002-09-02 09:00:00 TS 36.2853 -169.637 main 1845 1757 P_____________ EP082002 36.2853 -169.637 TS 35 1010 0 1012 120 40 16 337
2002234N13253 2002 52 EP CP FAUSTO 2002-09-02 12:00:00 TS 37.2000 -170.000 35 1011 hurdat_epa main 1746 1614 O_____________ hurdat_epa EP082002 37.2000 -170.000 TS 35 1011 0 1012 120 40 23 348
2002234N13253 2002 52 EP CP FAUSTO 2002-09-02 15:00:00 TS 38.4800 -170.245 main 1603 1447 P_____________ EP082002 38.4800 -170.245 TS 35 1012 0 1013 120 40 28 355
2002234N13253 2002 52 EP CP FAUSTO 2002-09-02 18:00:00 TS 40.0000 -170.300 35 1014 hurdat_epa main 1436 1269 O_____________ hurdat_epa EP082002 40.0000 -170.300 TS 35 1014 0 1015 120 40 31 2
2002234N13253 2002 52 EP CP FAUSTO 2002-09-02 21:00:00 TS 41.5526 -170.123 main 1258 1101 P_____________ EP082002 41.5526 -170.123 TS 35 1015 0 1016 120 40 31 7
2002234N13253 2002 52 EP CP FAUSTO 2002-09-03 00:00:00 TS 43.1000 -169.800 35 1016 hurdat_epa main 1090 O_____________ hurdat_epa EP082002 43.1000 -169.800 TS 35 1016 0 1017 120 40 31 9

About IBTrACS Database

This database is a web-friendly format of International Best Track Archive for Climate Stewardship (IBTrACS), a global best track data archive curated by NOAA dating back to 1842.

Updated: 2021-10-08